Time;durP1;ratioP1;P1;durP2;ratioP2;P2;SDS_P1;SDS_P2;PMS_P1;PMS_P2;Temp;Humidity;BMP_temperature;BMP_pressure;BME280_temperature;BME280_humidity;BME280_pressure;Samples;Min_cycle;Max_cycle;Signal;HPM_P1;HPM_P2
2021/01/31 00:00:35;;;;;;;16.70;10.60;;;1.20;99.90;;;;;;5073643;28;20020;-77
2021/01/31 00:03:07;;;;;;;16.10;9.60;;;1.30;99.90;;;;;;5090317;28;20667;-77
2021/01/31 00:05:37;;;;;;;16.77;10.00;;;1.20;99.90;;;;;;5080043;28;20027;-76
2021/01/31 00:08:07;;;;;;;14.35;9.25;;;1.30;99.90;;;;;;5075391;28;20028;-76
2021/01/31 00:10:33;;;;;;;18.63;11.43;;;1.30;99.90;;;;;;5091472;28;20029;-77
2021/01/31 00:12:59;;;;;;;16.42;10.38;;;1.20;99.90;;;;;;5094727;28;20464;-77
2021/01/31 00:15:33;;;;;;;14.95;9.98;;;1.20;99.90;;;;;;5088646;28;20047;-76
2021/01/31 00:18:04;;;;;;;17.55;10.75;;;1.10;99.90;;;;;;5088799;28;20058;-77
2021/01/31 00:20:33;;;;;;;17.02;10.45;;;1.10;99.90;;;;;;5093090;28;20024;-77
2021/01/31 00:23:02;;;;;;;18.50;10.45;;;1.10;99.90;;;;;;5087107;28;20036;-77
2021/01/31 00:25:32;;;;;;;16.92;10.65;;;1.20;99.90;;;;;;5097935;28;20100;-77
2021/01/31 00:28:00;;;;;;;17.15;10.85;;;1.10;99.90;;;;;;5096273;28;20058;-77
2021/01/31 00:30:27;;;;;;;19.75;11.65;;;1.10;99.90;;;;;;5093254;28;20156;-77
2021/01/31 00:32:55;;;;;;;16.52;10.77;;;1.20;99.90;;;;;;5091850;28;20079;-77
2021/01/31 00:35:25;;;;;;;18.25;10.95;;;1.20;99.90;;;;;;5092117;28;20028;-77
2021/01/31 00:37:50;;;;;;;19.60;10.80;;;1.20;99.90;;;;;;5089411;28;20493;-77
2021/01/31 00:40:19;;;;;;;18.00;10.93;;;1.20;99.90;;;;;;5088690;28;20051;-77
2021/01/31 00:42:49;;;;;;;21.05;11.73;;;1.10;99.90;;;;;;5061263;28;20019;-77
2021/01/31 00:45:19;;;;;;;19.88;12.05;;;1.10;99.90;;;;;;5075707;28;20015;-77
2021/01/31 00:47:47;;;;;;;20.75;12.82;;;1.10;99.90;;;;;;5070974;28;20047;-76
2021/01/31 00:50:26;;;;;;;19.70;11.25;;;1.00;99.90;;;;;;5044985;28;20125;-77
2021/01/31 00:52:52;;;;;;;22.92;13.00;;;1.00;99.90;;;;;;5090298;28;20028;-78
2021/01/31 00:55:18;;;;;;;20.80;11.60;;;1.00;99.90;;;;;;5089722;28;20106;-77
2021/01/31 00:57:46;;;;;;;21.25;12.20;;;1.00;99.90;;;;;;5059422;28;20035;-77
2021/01/31 01:00:21;;;;;;;20.88;12.52;;;1.00;99.90;;;;;;5093958;28;20019;-74
2021/01/31 01:02:47;;;;;;;21.42;12.77;;;1.00;99.90;;;;;;5086523;28;20614;-77
2021/01/31 01:05:13;;;;;;;21.25;12.73;;;1.00;99.90;;;;;;5085852;28;20021;-78
2021/01/31 01:07:43;;;;;;;21.50;12.70;;;1.00;99.90;;;;;;5080216;28;20438;-77
2021/01/31 01:10:09;;;;;;;22.70;13.40;;;1.00;99.90;;;;;;5067399;28;20369;-77
2021/01/31 01:12:37;;;;;;;22.33;13.20;;;0.90;99.90;;;;;;5073886;28;20016;-77
2021/01/31 01:15:08;;;;;;;21.33;13.43;;;0.90;99.90;;;;;;5068421;28;20500;-77
2021/01/31 01:17:33;;;;;;;25.90;14.13;;;0.90;99.90;;;;;;5089179;28;20039;-77
2021/01/31 01:20:01;;;;;;;22.42;12.85;;;0.90;99.90;;;;;;5073965;28;20024;-78
2021/01/31 01:22:29;;;;;;;23.17;13.73;;;1.00;99.90;;;;;;5078750;28;20015;-77
2021/01/31 01:24:55;;;;;;;23.35;13.73;;;1.00;99.90;;;;;;5087744;28;20093;-77
2021/01/31 01:27:24;;;;;;;23.05;12.93;;;1.00;99.90;;;;;;5076644;28;20024;-78
2021/01/31 01:29:52;;;;;;;24.80;13.32;;;1.00;99.90;;;;;;5074403;28;20032;-78
2021/01/31 01:32:18;;;;;;;24.52;13.40;;;1.00;99.90;;;;;;5074159;28;20513;-77
2021/01/31 01:34:43;;;;;;;22.65;12.65;;;1.00;99.90;;;;;;5073967;28;20039;-78
2021/01/31 01:37:10;;;;;;;24.15;13.70;;;1.00;99.90;;;;;;5074051;28;20116;-78
2021/01/31 01:39:38;;;;;;;23.33;13.82;;;1.00;99.90;;;;;;5074119;28;20131;-77
2021/01/31 01:42:15;;;;;;;24.63;14.10;;;1.00;99.90;;;;;;5060001;28;20048;-77
2021/01/31 01:44:40;;;;;;;26.58;14.68;;;1.00;99.90;;;;;;5074248;28;20020;-77
2021/01/31 01:47:16;;;;;;;24.38;13.88;;;0.90;99.90;;;;;;5054783;28;20089;-77
2021/01/31 01:49:45;;;;;;;23.77;14.13;;;0.80;99.90;;;;;;5059464;28;20031;-77
2021/01/31 01:52:23;;;;;;;25.40;15.15;;;0.80;99.90;;;;;;5086548;28;20506;-78
2021/01/31 01:54:52;;;;;;;24.67;13.57;;;0.80;99.90;;;;;;5084988;28;20036;-77
2021/01/31 01:57:20;;;;;;;25.88;14.68;;;0.80;99.90;;;;;;5083055;28;20052;-77
2021/01/31 01:59:46;;;;;;;21.95;13.45;;;0.80;99.90;;;;;;5071454;28;20063;-78
2021/01/31 02:02:19;;;;;;;23.98;13.48;;;0.80;99.90;;;;;;5077890;28;20114;-77
2021/01/31 02:04:47;;;;;;;25.30;14.27;;;0.80;99.90;;;;;;5075935;28;20594;-78
2021/01/31 02:07:15;;;;;;;24.27;13.88;;;0.80;99.90;;;;;;5067325;28;20039;-77
2021/01/31 02:09:48;;;;;;;24.08;13.70;;;0.70;99.90;;;;;;5091634;28;20053;-77
2021/01/31 02:12:15;;;;;;;22.60;13.07;;;0.80;99.90;;;;;;5076220;28;20104;-77
2021/01/31 02:14:44;;;;;;;26.27;14.60;;;0.80;99.90;;;;;;5078587;28;20032;-78
2021/01/31 02:17:16;;;;;;;24.02;13.45;;;0.80;99.90;;;;;;5053549;28;20085;-78
2021/01/31 02:19:50;;;;;;;23.80;13.43;;;0.90;99.90;;;;;;5075013;28;20085;-77
2021/01/31 02:22:22;;;;;;;24.25;13.82;;;0.80;99.90;;;;;;5084947;28;20036;-77
2021/01/31 02:25:06;;;;;;;16.83;10.23;;;0.80;99.90;;;;;;5076437;28;20024;-78
2021/01/31 02:27:50;;;;;;;25.90;15.43;;;0.90;99.90;;;;;;5076849;28;20310;-77
2021/01/31 02:30:43;;;;;;;25.08;13.98;;;0.90;99.90;;;;;;5077222;28;20029;-78
2021/01/31 02:33:17;;;;;;;23.27;13.38;;;0.80;99.90;;;;;;5052606;28;20483;-77
2021/01/31 02:35:46;;;;;;;25.23;14.75;;;0.80;99.90;;;;;;5076635;28;20435;-78
2021/01/31 02:38:16;;;;;;;25.15;14.75;;;0.80;99.90;;;;;;5050747;28;20065;-78
2021/01/31 02:40:45;;;;;;;24.98;14.40;;;0.80;99.90;;;;;;5071511;28;20167;-78
2021/01/31 02:43:19;;;;;;;27.08;14.43;;;0.70;99.90;;;;;;5072388;28;20533;-77
2021/01/31 02:45:47;;;;;;;26.60;14.77;;;0.80;99.90;;;;;;5069925;28;20071;-77
2021/01/31 02:48:18;;;;;;;24.63;14.20;;;0.70;99.90;;;;;;5075830;28;20023;-77
2021/01/31 02:50:48;;;;;;;22.98;13.48;;;0.80;99.90;;;;;;5063840;28;20075;-78
2021/01/31 02:53:25;;;;;;;28.20;14.57;;;0.80;99.90;;;;;;5074308;28;20068;-77
2021/01/31 02:56:02;;;;;;;22.52;12.55;;;0.80;99.90;;;;;;5076445;28;20120;-77
2021/01/31 02:58:42;;;;;;;24.95;13.38;;;0.80;99.90;;;;;;5056191;28;20034;-78
2021/01/31 03:01:36;;;;;;;23.85;13.88;;;0.90;99.90;;;;;;5089068;28;20024;-78
2021/01/31 03:04:07;;;;;;;22.88;12.65;;;0.70;99.90;;;;;;5079491;28;20036;-77
2021/01/31 03:06:37;;;;;;;23.02;12.95;;;0.80;99.90;;;;;;5076110;27;20023;-78
2021/01/31 03:09:18;;;;;;;25.55;14.27;;;0.70;99.90;;;;;;5059628;28;20126;-78
2021/01/31 03:12:00;;;;;;;22.63;13.38;;;0.70;99.90;;;;;;5057755;28;20028;-78
2021/01/31 03:14:34;;;;;;;26.17;13.75;;;0.70;99.90;;;;;;5080143;27;20032;-77
2021/01/31 03:17:07;;;;;;;26.08;14.13;;;0.80;99.90;;;;;;5089776;28;20077;-77
2021/01/31 03:19:48;;;;;;;25.45;14.05;;;0.60;99.90;;;;;;5068514;28;20054;-77
2021/01/31 03:22:23;;;;;;;24.80;13.35;;;0.60;99.90;;;;;;5074343;28;20032;-78
2021/01/31 03:24:56;;;;;;;23.10;13.73;;;0.60;99.90;;;;;;5074243;28;20619;-78
2021/01/31 03:27:32;;;;;;;23.80;12.85;;;0.60;99.90;;;;;;5040699;28;20040;-77
2021/01/31 03:29:58;;;;;;;22.15;12.48;;;0.60;99.90;;;;;;5058685;28;20024;-77
2021/01/31 03:32:32;;;;;;;22.90;12.90;;;0.60;99.90;;;;;;5075021;28;20513;-77
2021/01/31 03:35:16;;;;;;;21.55;12.80;;;0.70;99.90;;;;;;5072401;28;20025;-77
2021/01/31 03:37:48;;;;;;;20.90;12.50;;;0.70;99.90;;;;;;5076476;28;20037;-77
2021/01/31 03:40:16;;;;;;;21.63;12.15;;;0.60;99.90;;;;;;5058757;28;20048;-77
2021/01/31 03:42:47;;;;;;;19.92;12.48;;;0.60;99.90;;;;;;5059470;28;20033;-77
2021/01/31 03:45:14;;;;;;;22.67;11.90;;;0.70;99.90;;;;;;5073942;28;20077;-77
2021/01/31 03:47:52;;;;;;;21.80;12.13;;;0.70;99.90;;;;;;5057467;28;20032;-77
2021/01/31 03:50:22;;;;;;;21.63;12.43;;;0.70;99.90;;;;;;5078874;28;20028;-77
2021/01/31 03:52:48;;;;;;;22.58;12.07;;;0.70;99.90;;;;;;5053307;28;20038;-77
2021/01/31 03:55:16;;;;;;;21.77;12.75;;;0.70;99.90;;;;;;5073688;28;20032;-77
2021/01/31 03:57:50;;;;;;;22.88;12.23;;;0.70;99.90;;;;;;5074970;28;20185;-77
2021/01/31 04:00:26;;;;;;;21.20;12.82;;;0.70;99.90;;;;;;5068369;28;20031;-77
2021/01/31 04:03:15;;;;;;;21.02;12.07;;;0.70;99.90;;;;;;5052705;28;20020;-77
2021/01/31 04:05:49;;;;;;;20.40;12.02;;;0.60;99.90;;;;;;5051680;28;21722;-77
2021/01/31 04:08:17;;;;;;;23.00;12.35;;;0.60;99.90;;;;;;5072259;28;20407;-78
2021/01/31 04:10:43;;;;;;;20.02;11.48;;;0.60;99.90;;;;;;5073281;28;20043;-77
2021/01/31 04:13:09;;;;;;;20.17;11.80;;;0.60;99.90;;;;;;5074625;28;20028;-77
2021/01/31 04:15:43;;;;;;;20.88;11.88;;;0.50;99.90;;;;;;5062256;28;20026;-77
2021/01/31 04:18:09;;;;;;;21.65;12.38;;;0.50;99.90;;;;;;5075096;28;20035;-77
2021/01/31 04:20:35;;;;;;;21.65;12.32;;;0.50;99.90;;;;;;5057792;28;20118;-77
2021/01/31 04:23:03;;;;;;;20.90;12.40;;;0.40;99.90;;;;;;5074964;28;20159;-77
2021/01/31 04:25:29;;;;;;;20.42;12.30;;;0.50;99.90;;;;;;5090476;27;20028;-77
2021/01/31 04:27:54;;;;;;;19.27;10.98;;;0.50;99.90;;;;;;5074926;28;20039;-77
2021/01/31 04:30:23;;;;;;;18.85;11.38;;;0.50;99.90;;;;;;5075890;28;20107;-77
2021/01/31 04:32:51;;;;;;;18.98;11.20;;;0.50;99.90;;;;;;5073763;28;20032;-77
2021/01/31 04:35:16;;;;;;;20.63;12.05;;;0.50;99.90;;;;;;5074012;28;20032;-77
2021/01/31 04:37:44;;;;;;;18.75;11.20;;;0.50;99.90;;;;;;5069493;28;20031;-77
2021/01/31 04:40:12;;;;;;;17.73;10.63;;;0.50;99.90;;;;;;5074441;28;20108;-77
2021/01/31 04:42:38;;;;;;;17.92;10.88;;;0.40;99.90;;;;;;5068202;28;20032;-77
2021/01/31 04:45:08;;;;;;;18.73;10.95;;;0.40;99.90;;;;;;5058770;28;20020;-77
2021/01/31 04:47:39;;;;;;;18.67;11.43;;;0.40;99.90;;;;;;5073249;28;20492;-77
2021/01/31 04:50:37;;;;;;;19.77;12.15;;;0.40;99.90;;;;;;5071593;28;20036;-77
2021/01/31 04:53:11;;;;;;;19.52;11.05;;;0.40;99.90;;;;;;5070880;28;20078;-77
2021/01/31 04:56:11;;;;;;;19.05;10.90;;;0.40;99.90;;;;;;5077725;28;20118;-77
2021/01/31 04:58:47;;;;;;;18.30;10.90;;;0.50;99.90;;;;;;5074021;28;20042;-77
2021/01/31 05:01:27;;;;;;;18.63;11.30;;;0.50;99.90;;;;;;5075137;28;20024;-78
2021/01/31 05:04:03;;;;;;;17.35;10.57;;;0.50;99.90;;;;;;5066567;28;20106;-78
2021/01/31 05:06:36;;;;;;;17.58;10.60;;;0.50;99.90;;;;;;5072857;28;20016;-77
2021/01/31 05:09:05;;;;;;;18.88;11.13;;;0.50;99.90;;;;;;5081273;28;20073;-77
2021/01/31 05:11:39;;;;;;;17.88;11.35;;;0.50;99.90;;;;;;5061694;28;20031;-77
2021/01/31 05:14:09;;;;;;;18.73;11.75;;;0.40;99.90;;;;;;5047643;28;20032;-77
2021/01/31 05:16:46;;;;;;;18.02;11.25;;;0.40;99.90;;;;;;5073414;28;20020;-76
2021/01/31 05:19:17;;;;;;;18.02;11.00;;;0.30;99.90;;;;;;5072645;28;20040;-77
2021/01/31 05:21:45;;;;;;;18.50;11.18;;;0.30;99.90;;;;;;5066997;28;20042;-77
2021/01/31 05:24:18;;;;;;;17.17;10.45;;;0.40;99.90;;;;;;5074729;28;20459;-77
2021/01/31 05:26:50;;;;;;;19.05;11.15;;;0.40;99.90;;;;;;5077067;28;20062;-77
2021/01/31 05:29:30;;;;;;;18.00;10.93;;;0.50;99.90;;;;;;5072890;28;20028;-77
2021/01/31 05:32:18;;;;;;;15.90;10.07;;;0.50;99.90;;;;;;5073753;28;20492;-77
2021/01/31 05:34:54;;;;;;;17.15;10.75;;;0.50;99.90;;;;;;5074201;28;20090;-77
2021/01/31 05:37:22;;;;;;;16.85;10.77;;;0.60;99.90;;;;;;5076211;28;20055;-77
2021/01/31 05:39:54;;;;;;;18.77;11.13;;;0.50;99.90;;;;;;5068632;28;20170;-77
2021/01/31 05:42:21;;;;;;;12.73;8.25;;;0.50;99.90;;;;;;5075761;28;20036;-76
2021/01/31 05:45:05;;;;;;;19.60;11.57;;;0.50;99.90;;;;;;5063013;28;20020;-77
2021/01/31 05:47:37;;;;;;;18.73;10.93;;;0.50;99.90;;;;;;5071618;28;20051;-77
2021/01/31 05:50:24;;;;;;;19.13;11.13;;;0.40;99.90;;;;;;5091481;28;20024;-77
2021/01/31 05:52:49;;;;;;;17.95;11.30;;;0.50;99.90;;;;;;5085486;28;21048;-77
2021/01/31 05:55:28;;;;;;;17.90;11.00;;;0.50;99.90;;;;;;5087602;28;20032;-77
2021/01/31 05:58:14;;;;;;;18.88;11.23;;;0.50;99.90;;;;;;5091154;28;20055;-77
2021/01/31 06:00:39;;;;;;;19.50;11.43;;;0.50;99.90;;;;;;5078062;28;20135;-77
2021/01/31 06:03:09;;;;;;;21.00;12.45;;;0.50;99.90;;;;;;5075962;28;20047;-76
2021/01/31 06:05:37;;;;;;;18.83;10.45;;;0.50;99.90;;;;;;5070868;28;20513;-77
2021/01/31 06:08:07;;;;;;;17.30;10.43;;;0.50;99.90;;;;;;5075248;28;20393;-76
2021/01/31 06:10:36;;;;;;;16.90;10.63;;;0.50;99.90;;;;;;5060228;28;20107;-77
2021/01/31 06:13:22;;;;;;;18.02;11.60;;;0.50;99.90;;;;;;5063499;28;20583;-77
2021/01/31 06:15:56;;;;;;;16.92;9.90;;;0.50;99.90;;;;;;5086106;28;20054;-77
2021/01/31 06:18:39;;;;;;;19.20;11.60;;;0.40;99.90;;;;;;5086896;28;20576;-77
2021/01/31 06:21:19;;;;;;;16.88;10.88;;;0.50;99.90;;;;;;5066186;28;20373;-77
2021/01/31 06:23:50;;;;;;;19.45;11.15;;;0.40;99.90;;;;;;5058420;28;20047;-77
2021/01/31 06:26:27;;;;;;;17.67;10.50;;;0.40;99.90;;;;;;5076751;28;20021;-76
2021/01/31 06:29:01;;;;;;;17.52;10.75;;;0.30;99.90;;;;;;5075513;28;20024;-77
2021/01/31 06:31:46;;;;;;;15.95;9.95;;;0.20;99.90;;;;;;5059010;28;20020;-77
2021/01/31 06:34:11;;;;;;;17.70;10.50;;;0.20;99.90;;;;;;5077246;28;20063;-77
2021/01/31 06:37:15;;;;;;;18.55;10.95;;;0.20;99.90;;;;;;5057722;28;21738;-78
2021/01/31 06:39:55;;;;;;;16.92;10.35;;;0.30;99.90;;;;;;5076433;28;20054;-76
2021/01/31 06:43:14;;;;;;;17.70;10.73;;;0.30;99.90;;;;;;5071452;28;20043;-76
2021/01/31 06:45:48;;;;;;;16.70;10.10;;;0.30;99.90;;;;;;5014559;28;20040;-76
2021/01/31 06:48:26;;;;;;;16.90;10.90;;;0.40;99.90;;;;;;5069685;28;20550;-76
2021/01/31 06:51:05;;;;;;;17.45;9.85;;;0.40;99.90;;;;;;5067676;28;20131;-76
2021/01/31 06:53:45;;;;;;;17.38;10.65;;;0.30;99.90;;;;;;5076152;28;20024;-76
2021/01/31 06:56:25;;;;;;;17.45;10.57;;;0.40;99.90;;;;;;5077178;28;20603;-76
2021/01/31 06:59:10;;;;;;;16.25;9.80;;;0.30;99.90;;;;;;5059262;28;20028;-77
2021/01/31 07:01:41;;;;;;;16.50;10.57;;;0.30;99.90;;;;;;5080217;28;20028;-76
2021/01/31 07:04:28;;;;;;;17.77;11.10;;;0.30;99.90;;;;;;5078414;28;20115;-77
2021/01/31 07:07:26;;;;;;;17.02;10.35;;;0.30;99.90;;;;;;5070309;28;20047;-76
2021/01/31 07:09:57;;;;;;;17.05;10.27;;;0.30;99.90;;;;;;5064068;28;20470;-76
2021/01/31 07:12:45;;;;;;;21.88;12.52;;;0.40;99.90;;;;;;5077132;28;20025;-76
2021/01/31 07:15:19;;;;;;;18.25;10.65;;;0.40;99.90;;;;;;5076057;28;20362;-76
2021/01/31 07:17:55;;;;;;;18.15;10.82;;;0.40;99.90;;;;;;5076615;28;20120;-76
2021/01/31 07:20:25;;;;;;;18.40;11.93;;;0.40;99.90;;;;;;5067602;28;20120;-76
2021/01/31 07:23:18;;;;;;;18.30;11.13;;;0.40;99.90;;;;;;5075335;28;20370;-76
2021/01/31 07:26:12;;;;;;;17.58;10.48;;;0.40;99.90;;;;;;5073195;28;20375;-76
2021/01/31 07:28:42;;;;;;;17.70;10.90;;;0.40;99.90;;;;;;5074422;28;20036;-76
2021/01/31 07:31:34;;;;;;;18.60;10.73;;;0.30;99.90;;;;;;5057660;28;20526;-76
2021/01/31 07:34:02;;;;;;;19.15;11.38;;;0.40;99.90;;;;;;5063259;28;20028;-77
2021/01/31 07:37:02;;;;;;;17.92;11.15;;;0.40;99.90;;;;;;5073955;28;20062;-76
2021/01/31 07:39:50;;;;;;;19.40;10.60;;;0.40;99.90;;;;;;5079656;28;21069;-77
2021/01/31 07:42:20;;;;;;;17.45;10.70;;;0.40;99.90;;;;;;5075704;28;20142;-76
2021/01/31 07:44:49;;;;;;;17.75;11.40;;;0.30;99.90;;;;;;5056426;28;20114;-77
2021/01/31 07:47:17;;;;;;;21.98;12.10;;;0.30;99.90;;;;;;5056558;28;20039;-77
2021/01/31 07:49:55;;;;;;;18.38;10.93;;;0.30;99.90;;;;;;5056639;28;20028;-76
2021/01/31 07:52:27;;;;;;;16.88;10.65;;;0.40;99.90;;;;;;5078439;28;20083;-76
2021/01/31 07:55:23;;;;;;;13.00;7.47;;;0.40;99.90;;;;;;5083325;28;20553;-77
2021/01/31 07:58:19;;;;;;;16.42;10.35;;;0.40;99.90;;;;;;5089145;28;20036;-76
2021/01/31 08:00:46;;;;;;;18.55;10.82;;;0.40;99.90;;;;;;5067826;28;20039;-76
2021/01/31 08:03:25;;;;;;;19.60;11.95;;;0.40;99.90;;;;;;5072396;28;20882;-77
2021/01/31 08:06:17;;;;;;;19.33;11.70;;;0.40;99.90;;;;;;5076199;28;20017;-76
2021/01/31 08:08:44;;;;;;;19.07;10.37;;;0.40;99.90;;;;;;5053425;28;20150;-76
2021/01/31 08:11:16;;;;;;;19.70;11.38;;;0.40;99.90;;;;;;5074401;28;20927;-76
2021/01/31 08:13:49;;;;;;;18.08;10.70;;;0.30;99.90;;;;;;5074290;28;20112;-77
2021/01/31 08:16:40;;;;;;;18.90;10.13;;;0.30;99.90;;;;;;5072551;28;20090;-76
2021/01/31 08:19:17;;;;;;;19.35;11.10;;;0.20;99.90;;;;;;5072192;28;20040;-77
2021/01/31 08:21:48;;;;;;;18.30;10.80;;;0.30;99.90;;;;;;5076588;28;20166;-76
2021/01/31 08:24:14;;;;;;;17.42;10.32;;;0.40;99.90;;;;;;5073658;28;20036;-77
2021/01/31 08:26:43;;;;;;;17.85;10.55;;;0.40;99.90;;;;;;5079507;28;20057;-77
2021/01/31 08:29:21;;;;;;;16.80;10.57;;;0.40;99.90;;;;;;5062433;28;20570;-77
2021/01/31 08:32:06;;;;;;;16.35;10.57;;;0.40;99.90;;;;;;5075134;28;20066;-76
2021/01/31 08:35:13;;;;;;;18.10;10.50;;;0.50;99.90;;;;;;5053268;28;20197;-76
2021/01/31 08:37:39;;;;;;;20.08;11.80;;;0.50;99.90;;;;;;5066700;28;20098;-77
2021/01/31 08:40:16;;;;;;;18.90;11.38;;;0.50;99.90;;;;;;5074509;28;20449;-76
2021/01/31 08:42:53;;;;;;;18.77;10.68;;;0.60;99.90;;;;;;5057144;28;20043;-76
2021/01/31 08:45:26;;;;;;;18.08;10.60;;;0.60;99.90;;;;;;5085398;28;20038;-76
2021/01/31 08:47:53;;;;;;;18.38;10.40;;;0.60;99.90;;;;;;5063855;28;20036;-76
2021/01/31 08:50:21;;;;;;;20.63;12.07;;;0.60;99.90;;;;;;5074486;28;20112;-77
2021/01/31 08:52:49;;;;;;;19.20;11.57;;;0.60;99.90;;;;;;5074284;28;20039;-76
2021/01/31 08:55:23;;;;;;;23.02;12.00;;;0.60;99.90;;;;;;5056922;28;20181;-77
2021/01/31 08:57:48;;;;;;;19.70;11.45;;;0.60;99.90;;;;;;5067381;28;20050;-77
2021/01/31 09:00:16;;;;;;;20.92;12.18;;;0.70;99.90;;;;;;5074076;28;20456;-77
2021/01/31 09:02:45;;;;;;;18.83;11.10;;;0.70;99.90;;;;;;5065439;28;20039;-77
2021/01/31 09:05:20;;;;;;;18.42;11.48;;;0.70;99.90;;;;;;5052079;28;20027;-77
2021/01/31 09:07:58;;;;;;;18.42;11.27;;;0.70;99.90;;;;;;5070326;28;20046;-78
2021/01/31 09:10:30;;;;;;;19.63;11.25;;;0.70;99.90;;;;;;5062134;28;20020;-77
2021/01/31 09:13:19;;;;;;;20.00;11.77;;;0.60;99.90;;;;;;5077727;28;20031;-77
2021/01/31 09:15:45;;;;;;;18.48;11.10;;;0.50;99.90;;;;;;5075931;28;20028;-77
2021/01/31 09:18:23;;;;;;;18.75;11.52;;;0.50;99.90;;;;;;5077516;28;20039;-77
2021/01/31 09:20:51;;;;;;;19.38;11.20;;;0.60;99.90;;;;;;5064641;28;20031;-77
2021/01/31 09:23:28;;;;;;;17.25;10.88;;;0.60;99.90;;;;;;5084489;28;20372;-77
2021/01/31 09:25:59;;;;;;;17.73;10.30;;;0.70;99.90;;;;;;5077296;28;20070;-77
2021/01/31 09:28:25;;;;;;;17.40;10.63;;;0.80;99.90;;;;;;5076037;28;20457;-77
2021/01/31 09:30:55;;;;;;;18.13;11.45;;;0.80;99.90;;;;;;5072088;28;20032;-78
2021/01/31 09:33:33;;;;;;;20.38;11.45;;;0.80;99.90;;;;;;5063662;28;20474;-77
2021/01/31 09:36:17;;;;;;;18.50;10.80;;;0.90;99.90;;;;;;5059951;28;20115;-77
2021/01/31 09:38:45;;;;;;;17.83;11.15;;;0.90;99.90;;;;;;5078870;28;20020;-77
2021/01/31 09:41:14;;;;;;;19.90;11.88;;;0.90;99.90;;;;;;5053824;28;20104;-77
2021/01/31 09:43:40;;;;;;;18.90;11.98;;;0.90;99.90;;;;;;5080034;28;20047;-76
2021/01/31 09:46:08;;;;;;;19.35;11.43;;;0.90;99.90;;;;;;5077333;28;20115;-77
2021/01/31 09:48:37;;;;;;;18.33;11.60;;;0.90;99.90;;;;;;5064580;28;20032;-77
2021/01/31 09:51:04;;;;;;;19.70;11.73;;;0.90;99.90;;;;;;5078620;28;20706;-77
2021/01/31 09:53:41;;;;;;;19.00;11.63;;;0.90;99.90;;;;;;5071351;28;20456;-77
2021/01/31 09:56:39;;;;;;;18.70;11.30;;;0.90;99.90;;;;;;5089304;28;20417;-78
2021/01/31 09:59:23;;;;;;;19.58;11.75;;;1.00;99.90;;;;;;5094290;28;20016;-77
2021/01/31 10:01:51;;;;;;;22.40;12.13;;;1.00;99.90;;;;;;5089526;28;20017;-77
2021/01/31 10:04:20;;;;;;;19.40;11.75;;;1.00;99.90;;;;;;5048588;28;20025;-77
2021/01/31 10:06:49;;;;;;;19.52;11.43;;;1.00;99.90;;;;;;5056570;28;20034;-78
2021/01/31 10:09:30;;;;;;;20.52;12.40;;;1.00;99.90;;;;;;5058510;28;20024;-78
2021/01/31 10:12:15;;;;;;;17.92;11.38;;;0.90;99.90;;;;;;5092930;28;20031;-79
2021/01/31 10:14:45;;;;;;;18.80;11.45;;;1.00;99.90;;;;;;5089711;28;20445;-78
2021/01/31 10:17:31;;;;;;;18.73;11.50;;;1.00;99.90;;;;;;5094765;28;20110;-77
2021/01/31 10:20:34;;;;;;;19.40;11.30;;;1.00;99.90;;;;;;5091055;28;20035;-77
2021/01/31 10:23:13;;;;;;;19.20;11.40;;;1.00;99.90;;;;;;5087057;28;21492;-77
2021/01/31 10:25:42;;;;;;;19.63;12.52;;;1.00;99.90;;;;;;5089955;28;20700;-77
2021/01/31 10:28:13;;;;;;;18.23;11.13;;;1.10;99.90;;;;;;5075613;28;20115;-77
2021/01/31 10:30:45;;;;;;;18.70;11.50;;;1.10;99.90;;;;;;5077495;28;20024;-78
2021/01/31 10:33:36;;;;;;;18.95;11.50;;;1.10;99.90;;;;;;5073441;28;20789;-77
2021/01/31 10:36:25;;;;;;;19.60;11.70;;;1.20;99.90;;;;;;5091698;28;20024;-77
2021/01/31 10:38:55;;;;;;;18.90;11.20;;;1.20;99.90;;;;;;5087347;28;20232;-77
2021/01/31 10:41:23;;;;;;;20.33;12.50;;;1.20;99.90;;;;;;5088711;28;20044;-78
2021/01/31 10:44:01;;;;;;;20.08;11.55;;;1.20;99.90;;;;;;5088208;28;20025;-78
2021/01/31 10:46:30;;;;;;;20.85;12.13;;;1.20;99.90;;;;;;5087519;28;20023;-78
2021/01/31 10:48:58;;;;;;;18.42;11.25;;;1.20;99.90;;;;;;5091899;28;20103;-77
2021/01/31 10:51:31;;;;;;;18.60;12.02;;;1.20;99.90;;;;;;5089243;28;20027;-78
2021/01/31 10:53:59;;;;;;;17.92;11.23;;;1.20;99.90;;;;;;5087859;28;20027;-78
2021/01/31 10:56:28;;;;;;;23.13;14.32;;;1.20;99.90;;;;;;5086078;28;20050;-78
2021/01/31 10:58:58;;;;;;;21.33;12.68;;;1.30;99.90;;;;;;5087133;27;20051;-78
2021/01/31 11:01:24;;;;;;;19.60;11.88;;;1.20;99.90;;;;;;5090309;28;20076;-77
2021/01/31 11:03:52;;;;;;;22.33;13.10;;;1.20;99.90;;;;;;5087996;28;20016;-77
2021/01/31 11:06:21;;;;;;;21.17;12.70;;;1.30;99.90;;;;;;5089911;28;20098;-77
2021/01/31 11:08:51;;;;;;;20.77;12.32;;;1.20;99.90;;;;;;5089868;28;20028;-78
2021/01/31 11:11:17;;;;;;;19.00;11.63;;;1.30;99.90;;;;;;5088148;28;20023;-78
2021/01/31 11:13:42;;;;;;;21.17;12.90;;;1.30;99.90;;;;;;5077057;28;20039;-78
2021/01/31 11:16:08;;;;;;;21.35;12.98;;;1.30;99.90;;;;;;5069358;28;20028;-78
2021/01/31 11:18:37;;;;;;;19.80;12.38;;;1.20;99.90;;;;;;5091125;28;20032;-78
2021/01/31 11:21:05;;;;;;;19.50;12.15;;;1.20;99.90;;;;;;5091279;28;20016;-78
2021/01/31 11:23:33;;;;;;;20.55;12.63;;;1.30;99.90;;;;;;5091105;28;20031;-78
2021/01/31 11:26:01;;;;;;;19.75;12.63;;;1.30;99.90;;;;;;5088659;28;20032;-78
2021/01/31 11:28:28;;;;;;;20.02;12.80;;;1.30;99.90;;;;;;5089282;28;20024;-78
2021/01/31 11:30:56;;;;;;;19.63;12.73;;;1.30;99.90;;;;;;5091147;28;20472;-78
2021/01/31 11:33:22;;;;;;;23.00;13.73;;;1.40;99.90;;;;;;5067176;28;20074;-78
2021/01/31 11:35:50;;;;;;;23.35;13.32;;;1.30;99.90;;;;;;5089169;28;20040;-78
2021/01/31 11:38:15;;;;;;;21.67;13.38;;;1.30;99.90;;;;;;5088536;28;20024;-78
2021/01/31 11:40:43;;;;;;;21.30;13.07;;;1.40;99.90;;;;;;5088491;28;20050;-78
2021/01/31 11:43:09;;;;;;;19.73;12.25;;;1.40;99.90;;;;;;5091342;28;20049;-78
2021/01/31 11:45:37;;;;;;;20.05;12.55;;;1.50;99.90;;;;;;5087753;28;20027;-78
2021/01/31 11:48:05;;;;;;;21.27;13.20;;;1.50;99.90;;;;;;5090698;28;20483;-78
2021/01/31 11:50:33;;;;;;;21.10;12.90;;;1.50;99.90;;;;;;5091377;28;20055;-75
2021/01/31 11:53:01;;;;;;;20.40;13.18;;;1.50;99.90;;;;;;5077209;28;20070;-75
2021/01/31 11:55:28;;;;;;;20.50;12.52;;;1.50;99.90;;;;;;5079196;28;20110;-78
2021/01/31 11:57:56;;;;;;;20.48;12.68;;;1.50;99.90;;;;;;5092768;28;20031;-78
2021/01/31 12:00:29;;;;;;;21.70;13.10;;;1.60;99.90;;;;;;5092317;28;20050;-79
2021/01/31 12:02:57;;;;;;;21.02;13.25;;;1.60;99.90;;;;;;5087413;28;20017;-79
2021/01/31 12:05:23;;;;;;;19.27;11.95;;;1.50;99.90;;;;;;5091679;28;20043;-79
2021/01/31 12:07:54;;;;;;;20.40;12.68;;;1.50;99.90;;;;;;5083460;28;20445;-78
2021/01/31 12:10:25;;;;;;;20.88;13.05;;;1.50;99.90;;;;;;5090276;28;20372;-79
2021/01/31 12:12:53;;;;;;;19.30;12.18;;;1.50;99.90;;;;;;5090468;28;20032;-79
2021/01/31 12:15:19;;;;;;;20.58;12.73;;;1.60;99.90;;;;;;5092619;28;20161;-78
2021/01/31 12:17:44;;;;;;;21.67;13.18;;;1.60;99.90;;;;;;5089575;28;20091;-79
2021/01/31 12:20:15;;;;;;;21.13;12.57;;;1.60;99.90;;;;;;5090615;28;20024;-79
2021/01/31 12:22:41;;;;;;;20.63;12.90;;;1.60;99.90;;;;;;5072658;28;20028;-79
2021/01/31 12:25:10;;;;;;;18.88;12.18;;;1.50;99.90;;;;;;5089596;28;20491;-78
2021/01/31 12:27:40;;;;;;;19.75;12.43;;;1.50;99.90;;;;;;5083892;28;20042;-79
2021/01/31 12:30:07;;;;;;;22.90;14.02;;;1.60;99.90;;;;;;5086808;28;20077;-79
2021/01/31 12:32:34;;;;;;;21.15;13.10;;;1.60;99.90;;;;;;5091519;28;20024;-81
2021/01/31 12:35:00;;;;;;;19.35;12.73;;;1.60;99.90;;;;;;5076673;28;20038;-79
2021/01/31 12:37:28;;;;;;;21.17;13.05;;;1.50;99.90;;;;;;5090091;28;20357;-79
2021/01/31 12:39:55;;;;;;;20.05;12.50;;;1.60;99.90;;;;;;5090630;28;20448;-78
2021/01/31 12:42:21;;;;;;;21.95;12.85;;;1.60;99.90;;;;;;5085605;28;20032;-79
2021/01/31 12:44:47;;;;;;;23.55;13.55;;;1.60;99.90;;;;;;5093951;28;20042;-79
2021/01/31 12:47:13;;;;;;;22.13;13.20;;;1.70;99.90;;;;;;5084047;28;20032;-79
2021/01/31 12:49:41;;;;;;;22.52;13.40;;;1.70;99.90;;;;;;5090435;28;20077;-79
2021/01/31 12:52:06;;;;;;;21.48;12.90;;;1.70;99.90;;;;;;5075263;28;20810;-79
2021/01/31 12:54:37;;;;;;;22.75;13.15;;;1.60;99.90;;;;;;5093262;28;20024;-79
2021/01/31 12:57:03;;;;;;;21.17;13.02;;;1.70;99.90;;;;;;5079644;28;20038;-78
2021/01/31 12:59:31;;;;;;;20.50;12.40;;;1.60;99.90;;;;;;5088494;28;20020;-78
2021/01/31 13:01:57;;;;;;;20.70;12.25;;;1.60;99.90;;;;;;5089653;28;20031;-78
2021/01/31 13:04:25;;;;;;;21.70;13.38;;;1.70;99.90;;;;;;5089931;28;20035;-78
2021/01/31 13:06:51;;;;;;;21.98;13.25;;;1.70;99.90;;;;;;5089277;28;20013;-78